Time;durP1;ratioP1;P1;durP2;ratioP2;P2;SDS_P1;SDS_P2;PMS_P1;PMS_P2;Temp;Humidity;BMP_temperature;BMP_pressure;BME280_temperature;BME280_humidity;BME280_pressure;Samples;Min_cycle;Max_cycle;Signal;HPM_P1;HPM_P2
2022/09/09 00:00:16;;;;;;;0.40;0.40;;;;;;;;;;5075667;28;20203;-64
2022/09/09 00:03:10;;;;;;;0.40;0.40;;;;;;;;;;5082261;28;20240;-63
2022/09/09 00:06:07;;;;;;;0.37;0.37;;;;;;;;;;5077747;28;20231;-64
2022/09/09 00:09:02;;;;;;;0.40;0.40;;;;;;;;;;5078230;28;20667;-64
2022/09/09 00:11:52;;;;;;;0.40;0.40;;;;;;;;;;5076924;28;20203;-63
2022/09/09 00:14:49;;;;;;;0.40;0.40;;;;;;;;;;5078380;28;20742;-64
2022/09/09 00:17:42;;;;;;;0.40;0.40;;;;;;;;;;5077290;28;20200;-63
2022/09/09 00:20:33;;;;;;;0.57;0.57;;;;;;;;;;5081967;28;20322;-64
2022/09/09 00:23:25;;;;;;;0.77;0.50;;;;;;;;;;5081459;28;20298;-63
2022/09/09 00:26:21;;;;;;;0.40;0.40;;;;;;;;;;5078282;28;20679;-63
2022/09/09 00:29:22;;;;;;;0.50;0.50;;;;;;;;;;5079357;28;20569;-62
2022/09/09 00:32:14;;;;;;;0.37;0.37;;;;;;;;;;5083572;28;20285;-64
2022/09/09 00:35:11;;;;;;;0.37;0.37;;;;;;;;;;5079972;28;20211;-63
2022/09/09 00:38:02;;;;;;;2.20;0.60;;;;;;;;;;5079162;28;20218;-64
2022/09/09 00:40:52;;;;;;;0.50;0.50;;;;;;;;;;5079135;28;20704;-64
2022/09/09 00:43:41;;;;;;;0.40;0.40;;;;;;;;;;5081199;28;20578;-63
2022/09/09 00:47:09;;;;;;;0.40;0.40;;;;;;;;;;5082408;28;20224;-64
2022/09/09 00:50:04;;;;;;;0.50;0.50;;;;;;;;;;4995518;28;20690;-63
2022/09/09 00:52:59;;;;;;;0.40;0.40;;;;;;;;;;4997798;28;20297;-63
2022/09/09 00:55:50;;;;;;;0.43;0.43;;;;;;;;;;5076594;28;20288;-64
2022/09/09 00:58:37;;;;;;;0.30;0.30;;;;;;;;;;5084686;28;20199;-63
2022/09/09 01:01:24;;;;;;;0.30;0.30;;;;;;;;;;5076351;28;20207;-63
2022/09/09 01:04:17;;;;;;;0.40;0.40;;;;;;;;;;5075879;28;20273;-64
2022/09/09 01:07:15;;;;;;;0.73;0.47;;;;;;;;;;5078819;28;20316;-63
2022/09/09 01:10:07;;;;;;;0.40;0.40;;;;;;;;;;5076840;28;20698;-64
2022/09/09 01:12:59;;;;;;;0.33;0.33;;;;;;;;;;5077485;28;20202;-63
2022/09/09 01:15:47;;;;;;;0.40;0.40;;;;;;;;;;5079860;28;20257;-64
2022/09/09 01:18:38;;;;;;;0.53;0.53;;;;;;;;;;5081218;28;20260;-63
2022/09/09 01:21:40;;;;;;;0.33;0.33;;;;;;;;;;5075147;28;20203;-64
2022/09/09 01:24:36;;;;;;;0.40;0.40;;;;;;;;;;5080130;28;20620;-63
2022/09/09 01:27:25;;;;;;;0.40;0.40;;;;;;;;;;5075372;28;20617;-64
2022/09/09 01:30:15;;;;;;;1.27;0.50;;;;;;;;;;5076434;28;20593;-63
2022/09/09 01:33:03;;;;;;;0.40;0.40;;;;;;;;;;5079419;28;20231;-64
2022/09/09 01:35:55;;;;;;;0.43;0.43;;;;;;;;;;5079151;28;20199;-63
2022/09/09 01:38:42;;;;;;;0.40;0.40;;;;;;;;;;5076800;28;20221;-63
2022/09/09 01:41:29;;;;;;;0.93;0.50;;;;;;;;;;5074345;28;20249;-64
2022/09/09 01:44:18;;;;;;;0.50;0.50;;;;;;;;;;5076725;28;20748;-63
2022/09/09 01:47:05;;;;;;;0.60;0.60;;;;;;;;;;5075333;28;20637;-63
2022/09/09 01:49:52;;;;;;;0.57;0.57;;;;;;;;;;5075979;28;20808;-64
2022/09/09 01:52:39;;;;;;;0.40;0.40;;;;;;;;;;5081624;28;20213;-63
2022/09/09 01:55:31;;;;;;;0.77;0.40;;;;;;;;;;5075624;28;20249;-63
2022/09/09 01:58:29;;;;;;;0.50;0.50;;;;;;;;;;5076216;28;20681;-64
2022/09/09 02:01:29;;;;;;;0.43;0.43;;;;;;;;;;5079582;28;20361;-64
2022/09/09 02:04:27;;;;;;;0.60;0.60;;;;;;;;;;5078023;28;20239;-63
2022/09/09 02:07:31;;;;;;;0.60;0.60;;;;;;;;;;5075719;28;20259;-64
2022/09/09 02:10:24;;;;;;;0.50;0.50;;;;;;;;;;5075698;28;20290;-63
2022/09/09 02:13:14;;;;;;;0.40;0.40;;;;;;;;;;5074925;28;20237;-63
2022/09/09 02:16:07;;;;;;;0.60;0.60;;;;;;;;;;5077189;28;20291;-63
2022/09/09 02:19:01;;;;;;;0.40;0.40;;;;;;;;;;5079935;28;20263;-64
2022/09/09 02:21:49;;;;;;;0.50;0.50;;;;;;;;;;5081168;28;20261;-63
2022/09/09 02:24:38;;;;;;;0.50;0.50;;;;;;;;;;5078859;28;20339;-64
2022/09/09 02:27:25;;;;;;;0.50;0.50;;;;;;;;;;5081837;28;20380;-64
2022/09/09 02:30:13;;;;;;;0.40;0.40;;;;;;;;;;5087501;28;20206;-64
2022/09/09 02:33:02;;;;;;;0.60;0.60;;;;;;;;;;5083631;28;20608;-63
2022/09/09 02:35:51;;;;;;;0.40;0.40;;;;;;;;;;5081404;28;20647;-63
2022/09/09 02:38:43;;;;;;;0.40;0.40;;;;;;;;;;5085315;28;20290;-63
2022/09/09 02:41:33;;;;;;;0.60;0.60;;;;;;;;;;5077708;28;20666;-64
2022/09/09 02:44:20;;;;;;;0.50;0.50;;;;;;;;;;5080030;28;20204;-63
2022/09/09 02:47:28;;;;;;;0.50;0.50;;;;;;;;;;5085208;28;20287;-63
2022/09/09 02:50:18;;;;;;;0.60;0.60;;;;;;;;;;5078251;28;20211;-63
2022/09/09 02:53:15;;;;;;;1.87;0.60;;;;;;;;;;5085508;28;20352;-63
2022/09/09 02:56:06;;;;;;;0.53;0.53;;;;;;;;;;5081182;28;20241;-63
2022/09/09 02:58:54;;;;;;;0.43;0.43;;;;;;;;;;5081449;28;20202;-64
2022/09/09 03:01:41;;;;;;;0.80;0.80;;;;;;;;;;5082458;28;20651;-63
2022/09/09 03:04:28;;;;;;;0.40;0.40;;;;;;;;;;5081474;28;20309;-64
2022/09/09 03:07:15;;;;;;;0.60;0.60;;;;;;;;;;5080268;28;20657;-63
2022/09/09 03:10:05;;;;;;;0.50;0.50;;;;;;;;;;5082367;28;20208;-64
2022/09/09 03:12:51;;;;;;;0.47;0.47;;;;;;;;;;5080692;28;20207;-63
2022/09/09 03:15:38;;;;;;;0.70;0.67;;;;;;;;;;5082368;28;20748;-64
2022/09/09 03:18:25;;;;;;;0.50;0.50;;;;;;;;;;5078929;28;20200;-63
2022/09/09 03:21:12;;;;;;;0.50;0.50;;;;;;;;;;5079882;28;20682;-65
2022/09/09 03:23:59;;;;;;;0.60;0.60;;;;;;;;;;5083848;28;20229;-63
2022/09/09 03:26:47;;;;;;;0.60;0.60;;;;;;;;;;5086340;28;20310;-63
2022/09/09 03:29:35;;;;;;;0.60;0.60;;;;;;;;;;5077840;28;20203;-63
2022/09/09 03:32:22;;;;;;;0.63;0.63;;;;;;;;;;5078673;28;20551;-63
2022/09/09 03:35:09;;;;;;;0.70;0.70;;;;;;;;;;5075330;28;20353;-63
2022/09/09 03:37:56;;;;;;;0.50;0.50;;;;;;;;;;5079867;28;20203;-63
2022/09/09 03:40:50;;;;;;;0.57;0.57;;;;;;;;;;5085804;28;20251;-64
2022/09/09 03:43:38;;;;;;;0.40;0.40;;;;;;;;;;5083427;28;20288;-64
2022/09/09 03:46:26;;;;;;;0.70;0.60;;;;;;;;;;5079786;28;20284;-63
2022/09/09 03:49:13;;;;;;;0.57;0.57;;;;;;;;;;5078820;28;20199;-64
2022/09/09 03:52:00;;;;;;;0.53;0.53;;;;;;;;;;5079006;28;20282;-63
2022/09/09 03:54:47;;;;;;;0.70;0.70;;;;;;;;;;5078240;28;20279;-64
2022/09/09 03:57:35;;;;;;;0.47;0.47;;;;;;;;;;5083335;28;20686;-63
2022/09/09 04:00:24;;;;;;;1.00;0.60;;;;;;;;;;5079236;28;20208;-63
2022/09/09 04:03:11;;;;;;;0.50;0.50;;;;;;;;;;5075144;28;20218;-63
2022/09/09 04:06:00;;;;;;;0.57;0.57;;;;;;;;;;5076849;28;20254;-63
2022/09/09 04:08:48;;;;;;;0.40;0.40;;;;;;;;;;5078999;28;20751;-63
2022/09/09 04:11:35;;;;;;;1.87;0.60;;;;;;;;;;5079517;28;20207;-63
2022/09/09 04:14:22;;;;;;;0.53;0.53;;;;;;;;;;5083761;28;20292;-63
2022/09/09 04:17:10;;;;;;;0.60;0.60;;;;;;;;;;5079798;28;20210;-64
2022/09/09 04:19:57;;;;;;;0.57;0.57;;;;;;;;;;5084388;28;20207;-64
2022/09/09 04:22:44;;;;;;;0.60;0.60;;;;;;;;;;5074020;28;20211;-63
2022/09/09 04:25:32;;;;;;;0.50;0.50;;;;;;;;;;5078920;28;20207;-63
2022/09/09 04:28:21;;;;;;;0.60;0.60;;;;;;;;;;5077973;28;20230;-64
2022/09/09 04:31:11;;;;;;;0.70;0.67;;;;;;;;;;5079913;28;20609;-63
2022/09/09 04:34:02;;;;;;;0.50;0.50;;;;;;;;;;5079283;28;20702;-63
2022/09/09 04:36:48;;;;;;;0.60;0.60;;;;;;;;;;5076068;28;20375;-63
2022/09/09 04:39:36;;;;;;;1.27;0.80;;;;;;;;;;5084520;28;20676;-63
2022/09/09 04:42:23;;;;;;;0.80;0.77;;;;;;;;;;5075797;28;20202;-63
2022/09/09 04:45:12;;;;;;;2.57;1.17;;;;;;;;;;5080579;28;20672;-63
2022/09/09 04:47:59;;;;;;;1.00;1.00;;;;;;;;;;5080377;28;20227;-63
2022/09/09 04:50:56;;;;;;;1.83;1.17;;;;;;;;;;5077969;28;20285;-63
2022/09/09 04:53:43;;;;;;;1.27;1.17;;;;;;;;;;5080577;28;20210;-63
2022/09/09 04:56:30;;;;;;;2.10;1.10;;;;;;;;;;5085407;28;20352;-64
2022/09/09 04:59:17;;;;;;;1.70;1.60;;;;;;;;;;5079910;28;20265;-65
2022/09/09 05:02:04;;;;;;;1.60;1.40;;;;;;;;;;5075860;28;20199;-63
2022/09/09 05:04:51;;;;;;;3.87;1.33;;;;;;;;;;5081280;28;20721;-63
2022/09/09 05:07:39;;;;;;;1.13;1.03;;;;;;;;;;5073969;28;20259;-63
2022/09/09 05:10:26;;;;;;;1.77;1.20;;;;;;;;;;5077520;28;20204;-63
2022/09/09 05:13:13;;;;;;;1.10;1.00;;;;;;;;;;5077218;28;20234;-64
2022/09/09 05:16:00;;;;;;;2.03;1.53;;;;;;;;;;5078372;28;20252;-63
2022/09/09 05:18:47;;;;;;;1.30;1.20;;;;;;;;;;5075883;28;20243;-63
2022/09/09 05:21:34;;;;;;;1.30;1.20;;;;;;;;;;5076514;28;20671;-63
2022/09/09 05:24:23;;;;;;;1.13;1.07;;;;;;;;;;5078749;28;20228;-64
2022/09/09 05:27:12;;;;;;;1.00;1.00;;;;;;;;;;5078003;28;20622;-64
2022/09/09 05:29:58;;;;;;;1.60;1.50;;;;;;;;;;5075479;28;20551;-63
2022/09/09 05:32:48;;;;;;;0.83;0.83;;;;;;;;;;5080226;28;20613;-63
2022/09/09 05:35:35;;;;;;;1.20;1.20;;;;;;;;;;5071973;28;20585;-63
2022/09/09 05:38:24;;;;;;;1.50;1.30;;;;;;;;;;5079323;28;20679;-64
2022/09/09 05:41:15;;;;;;;1.30;1.20;;;;;;;;;;5079242;28;20214;-64
2022/09/09 05:44:03;;;;;;;1.70;1.60;;;;;;;;;;5080942;28;20226;-63
2022/09/09 05:46:50;;;;;;;1.17;1.10;;;;;;;;;;5077769;28;20592;-63
2022/09/09 05:49:37;;;;;;;1.27;1.17;;;;;;;;;;5081282;28;20217;-63
2022/09/09 05:52:25;;;;;;;1.60;1.50;;;;;;;;;;5078456;28;20226;-63
2022/09/09 05:55:12;;;;;;;1.37;1.20;;;;;;;;;;5076327;28;20203;-63
2022/09/09 05:58:01;;;;;;;1.37;1.20;;;;;;;;;;5076519;28;20298;-63
2022/09/09 06:00:47;;;;;;;1.20;1.10;;;;;;;;;;5076308;28;20570;-64
2022/09/09 06:03:35;;;;;;;1.37;1.27;;;;;;;;;;5076575;28;21500;-63
2022/09/09 06:06:25;;;;;;;1.20;1.10;;;;;;;;;;5066858;28;20309;-63
2022/09/09 06:09:13;;;;;;;1.53;1.43;;;;;;;;;;5077938;28;20230;-63
2022/09/09 06:12:00;;;;;;;1.57;1.07;;;;;;;;;;5079170;28;20213;-63
2022/09/09 06:14:50;;;;;;;1.37;1.30;;;;;;;;;;5079096;28;20300;-63
2022/09/09 06:17:38;;;;;;;1.27;1.20;;;;;;;;;;5078385;28;20257;-66
2022/09/09 06:20:25;;;;;;;1.27;1.17;;;;;;;;;;5077178;28;20577;-69
2022/09/09 06:23:12;;;;;;;1.30;1.20;;;;;;;;;;5080216;28;20328;-63
2022/09/09 06:26:05;;;;;;;1.63;1.30;;;;;;;;;;5075881;28;20230;-64
2022/09/09 06:28:53;;;;;;;2.50;1.40;;;;;;;;;;5076371;28;20231;-63
2022/09/09 06:31:42;;;;;;;1.17;1.07;;;;;;;;;;5078610;28;20256;-64
2022/09/09 06:34:29;;;;;;;1.20;1.07;;;;;;;;;;5076535;28;20285;-64
2022/09/09 06:37:16;;;;;;;1.73;1.07;;;;;;;;;;5078647;28;20211;-64
2022/09/09 06:40:03;;;;;;;1.30;1.20;;;;;;;;;;5081456;28;20270;-63
2022/09/09 06:42:50;;;;;;;1.23;1.10;;;;;;;;;;5078364;28;20295;-63
2022/09/09 06:45:37;;;;;;;2.03;1.03;;;;;;;;;;5083188;28;20633;-63
2022/09/09 06:48:27;;;;;;;1.70;1.27;;;;;;;;;;5079112;28;20228;-63
2022/09/09 06:51:17;;;;;;;1.40;1.30;;;;;;;;;;5078426;28;20252;-63
2022/09/09 06:54:06;;;;;;;1.27;1.17;;;;;;;;;;5075205;28;20245;-64
2022/09/09 06:56:53;;;;;;;2.00;1.10;;;;;;;;;;5073723;28;20202;-63
2022/09/09 06:59:40;;;;;;;1.13;1.10;;;;;;;;;;5074382;28;20745;-64
2022/09/09 07:02:27;;;;;;;1.17;0.90;;;;;;;;;;5079146;28;20239;-63
2022/09/09 07:05:16;;;;;;;1.60;1.17;;;;;;;;;;5078346;28;20357;-63
2022/09/09 07:08:03;;;;;;;0.80;0.80;;;;;;;;;;5077440;28;20866;-64
2022/09/09 07:10:51;;;;;;;1.30;1.20;;;;;;;;;;5074632;28;20212;-63
2022/09/09 07:13:38;;;;;;;0.93;0.90;;;;;;;;;;5077963;28;20751;-64
2022/09/09 07:16:27;;;;;;;0.97;0.97;;;;;;;;;;5078528;28;20306;-63
2022/09/09 07:19:14;;;;;;;1.10;1.10;;;;;;;;;;5080789;28;20286;-63
2022/09/09 07:22:03;;;;;;;0.90;0.90;;;;;;;;;;5083208;28;20206;-63
2022/09/09 07:24:50;;;;;;;0.87;0.87;;;;;;;;;;5073634;28;20591;-63
2022/09/09 07:27:37;;;;;;;1.10;1.00;;;;;;;;;;5078251;28;20321;-63
2022/09/09 07:30:24;;;;;;;2.70;1.10;;;;;;;;;;5078595;28;20235;-63
2022/09/09 07:33:11;;;;;;;1.03;1.03;;;;;;;;;;5077495;28;20215;-63
2022/09/09 07:36:05;;;;;;;0.97;0.97;;;;;;;;;;5077593;28;20293;-63
2022/09/09 07:38:55;;;;;;;1.10;1.03;;;;;;;;;;5084171;28;20231;-63
2022/09/09 07:41:43;;;;;;;1.50;1.00;;;;;;;;;;5078831;28;20287;-63
2022/09/09 07:44:32;;;;;;;0.87;0.87;;;;;;;;;;5082177;28;20200;-63
2022/09/09 07:47:19;;;;;;;1.00;0.93;;;;;;;;;;5079072;28;20205;-63
2022/09/09 07:50:08;;;;;;;1.00;1.00;;;;;;;;;;5080458;28;20565;-63
2022/09/09 07:52:55;;;;;;;1.37;1.10;;;;;;;;;;5077800;28;20206;-63
2022/09/09 07:55:43;;;;;;;1.23;1.17;;;;;;;;;;5085587;28;20242;-63
2022/09/09 07:58:30;;;;;;;1.27;1.17;;;;;;;;;;5075213;28;20196;-63
2022/09/09 08:01:23;;;;;;;1.03;0.97;;;;;;;;;;5075400;28;20763;-63
2022/09/09 08:04:14;;;;;;;0.83;0.80;;;;;;;;;;5082437;28;20288;-63
2022/09/09 08:07:02;;;;;;;1.10;1.10;;;;;;;;;;5079822;28;20300;-63
2022/09/09 08:09:50;;;;;;;1.07;1.07;;;;;;;;;;5077169;28;20227;-63
2022/09/09 08:12:38;;;;;;;0.80;0.80;;;;;;;;;;5079950;28;20581;-63
2022/09/09 08:15:25;;;;;;;1.00;1.00;;;;;;;;;;5077871;28;20201;-63
2022/09/09 08:18:12;;;;;;;0.90;0.90;;;;;;;;;;5081492;28;20930;-63
2022/09/09 08:21:00;;;;;;;0.97;0.90;;;;;;;;;;5079134;28;20295;-63
2022/09/09 08:23:48;;;;;;;1.10;1.00;;;;;;;;;;5081299;28;20208;-62
2022/09/09 08:26:37;;;;;;;0.90;0.90;;;;;;;;;;5078696;28;20282;-62
2022/09/09 08:29:25;;;;;;;0.90;0.80;;;;;;;;;;5076040;28;20317;-63
2022/09/09 08:32:12;;;;;;;0.73;0.73;;;;;;;;;;5082084;28;20895;-63
2022/09/09 08:34:59;;;;;;;1.10;0.93;;;;;;;;;;5083153;28;20206;-62
2022/09/09 08:37:46;;;;;;;0.93;0.80;;;;;;;;;;5081379;28;20658;-63
2022/09/09 08:40:42;;;;;;;1.00;1.00;;;;;;;;;;5079681;28;20287;-63
2022/09/09 08:43:32;;;;;;;1.67;1.07;;;;;;;;;;5076790;28;20665;-63
2022/09/09 08:46:29;;;;;;;1.27;1.17;;;;;;;;;;5077337;28;20203;-62
2022/09/09 08:49:38;;;;;;;1.10;1.10;;;;;;;;;;5077424;28;20805;-63
2022/09/09 08:52:29;;;;;;;1.20;1.10;;;;;;;;;;5077503;28;20210;-63
2022/09/09 08:55:24;;;;;;;1.03;1.03;;;;;;;;;;5081910;28;20707;-63
2022/09/09 08:58:16;;;;;;;1.20;1.20;;;;;;;;;;5077836;28;20213;-63
2022/09/09 09:01:22;;;;;;;1.20;1.20;;;;;;;;;;5076975;28;20269;-64
2022/09/09 09:04:29;;;;;;;1.13;1.03;;;;;;;;;;5081036;28;20370;-63
2022/09/09 09:07:27;;;;;;;2.53;1.40;;;;;;;;;;5079342;28;20311;-63
2022/09/09 09:10:26;;;;;;;1.57;1.47;;;;;;;;;;5079138;28;20342;-63
2022/09/09 09:13:16;;;;;;;1.23;1.17;;;;;;;;;;5080395;28;20200;-63
2022/09/09 09:16:14;;;;;;;1.53;1.40;;;;;;;;;;5070371;28;20210;-63
2022/09/09 09:19:01;;;;;;;1.50;1.40;;;;;;;;;;5076673;28;20656;-63
2022/09/09 09:21:55;;;;;;;1.50;1.40;;;;;;;;;;5077993;28;20243;-63
2022/09/09 09:24:50;;;;;;;1.57;1.33;;;;;;;;;;5076559;28;20344;-63
2022/09/09 09:27:45;;;;;;;1.40;1.30;;;;;;;;;;5078183;28;20209;-63
2022/09/09 09:30:41;;;;;;;1.30;1.30;;;;;;;;;;5077449;28;20982;-63
2022/09/09 09:33:32;;;;;;;1.53;1.43;;;;;;;;;;5080429;28;20212;-63
2022/09/09 09:36:20;;;;;;;1.17;1.10;;;;;;;;;;5074648;28;20235;-63
2022/09/09 09:39:09;;;;;;;1.20;1.20;;;;;;;;;;5071727;28;20218;-63
2022/09/09 09:41:57;;;;;;;1.57;1.40;;;;;;;;;;5077419;28;20222;-63
2022/09/09 09:44:44;;;;;;;1.50;1.40;;;;;;;;;;5072644;28;20679;-62
2022/09/09 09:47:32;;;;;;;1.20;1.20;;;;;;;;;;5076481;28;20231;-63
2022/09/09 09:50:21;;;;;;;1.30;1.30;;;;;;;;;;5078800;28;20228;-63
2022/09/09 09:53:21;;;;;;;1.20;1.20;;;;;;;;;;5074487;28;20281;-63
2022/09/09 09:56:12;;;;;;;1.63;1.43;;;;;;;;;;5068851;28;20204;-63
2022/09/09 09:58:59;;;;;;;1.10;1.10;;;;;;;;;;5075764;28;20694;-63
2022/09/09 10:01:46;;;;;;;1.40;1.20;;;;;;;;;;5079741;28;20860;-63
2022/09/09 10:04:33;;;;;;;1.33;1.30;;;;;;;;;;5072323;28;20322;-63
2022/09/09 10:07:22;;;;;;;1.30;1.30;;;;;;;;;;5074579;28;20223;-64
2022/09/09 10:10:15;;;;;;;1.30;1.30;;;;;;;;;;5071460;28;20259;-63
2022/09/09 10:13:10;;;;;;;1.00;1.00;;;;;;;;;;5080150;28;20282;-62
2022/09/09 10:16:09;;;;;;;2.30;1.47;;;;;;;;;;5076457;28;20320;-63
2022/09/09 10:19:01;;;;;;;1.10;1.10;;;;;;;;;;5073261;28;20739;-63
2022/09/09 10:22:03;;;;;;;1.37;1.30;;;;;;;;;;5074205;28;20285;-63
2022/09/09 10:25:06;;;;;;;1.20;1.20;;;;;;;;;;5077561;28;20294;-62
2022/09/09 10:28:18;;;;;;;1.50;1.40;;;;;;;;;;5075515;28;20227;-63
2022/09/09 10:31:20;;;;;;;1.50;1.40;;;;;;;;;;5080061;28;21115;-63
2022/09/09 10:34:19;;;;;;;2.20;1.57;;;;;;;;;;5080309;28;20631;-63
2022/09/09 10:37:17;;;;;;;1.27;1.27;;;;;;;;;;5077288;28;20230;-63
2022/09/09 10:40:24;;;;;;;1.10;1.10;;;;;;;;;;5073478;28;20199;-63
2022/09/09 10:43:26;;;;;;;1.50;1.40;;;;;;;;;;5074300;28;20243;-63
2022/09/09 10:46:22;;;;;;;1.33;1.27;;;;;;;;;;5078338;28;20245;-63
2022/09/09 10:49:23;;;;;;;1.27;1.27;;;;;;;;;;5078983;28;20223;-63
2022/09/09 10:52:16;;;;;;;1.50;1.40;;;;;;;;;;5083126;28;20296;-63
2022/09/09 10:55:11;;;;;;;1.60;1.50;;;;;;;;;;5076858;28;20241;-63
2022/09/09 10:58:00;;;;;;;1.70;1.60;;;;;;;;;;5080793;28;20262;-63
2022/09/09 11:00:55;;;;;;;1.47;1.37;;;;;;;;;;5080607;28;20291;-63
2022/09/09 11:03:43;;;;;;;1.83;1.53;;;;;;;;;;5076465;28;20754;-63
2022/09/09 11:06:35;;;;;;;1.50;1.40;;;;;;;;;;5081766;28;20365;-63
2022/09/09 11:09:24;;;;;;;1.33;1.23;;;;;;;;;;5077787;28;20691;-63
2022/09/09 11:12:18;;;;;;;1.70;1.60;;;;;;;;;;5077047;28;20688;-63
2022/09/09 11:15:07;;;;;;;1.23;1.20;;;;;;;;;;5080329;28;20230;-63
2022/09/09 11:17:59;;;;;;;1.30;1.23;;;;;;;;;;5081117;28;20337;-63
2022/09/09 11:20:49;;;;;;;1.70;1.60;;;;;;;;;;5079411;28;20224;-62
2022/09/09 11:23:43;;;;;;;1.47;1.47;;;;;;;;;;5080595;28;20207;-63
2022/09/09 11:26:37;;;;;;;1.47;1.47;;;;;;;;;;5081174;28;20684;-63
2022/09/09 11:29:48;;;;;;;1.33;1.33;;;;;;;;;;5080097;28;20313;-63
2022/09/09 11:33:00;;;;;;;1.50;1.40;;;;;;;;;;5081907;28;20664;-63
2022/09/09 11:36:02;;;;;;;1.47;1.47;;;;;;;;;;5084591;28;20199;-63
2022/09/09 11:38:52;;;;;;;1.43;1.43;;;;;;;;;;5077449;28;20281;-63
2022/09/09 11:41:39;;;;;;;1.63;1.53;;;;;;;;;;5081356;28;20196;-63
2022/09/09 11:44:30;;;;;;;1.53;1.53;;;;;;;;;;5077329;28;20209;-63
2022/09/09 11:47:24;;;;;;;1.40;1.40;;;;;;;;;;5084213;28;20199;-64
2022/09/09 11:50:30;;;;;;;1.57;1.47;;;;;;;;;;5079072;28;20226;-63
2022/09/09 11:53:23;;;;;;;1.33;1.33;;;;;;;;;;5081257;28;20202;-64
2022/09/09 11:56:14;;;;;;;1.50;1.40;;;;;;;;;;5081409;28;20207;-63
2022/09/09 11:59:03;;;;;;;1.20;1.20;;;;;;;;;;5082376;28;20655;-63
2022/09/09 12:01:55;;;;;;;1.23;1.23;;;;;;;;;;5081627;28;20210;-63
2022/09/09 12:04:45;;;;;;;1.70;1.60;;;;;;;;;;5077029;28;20299;-63
2022/09/09 12:07:38;;;;;;;1.50;1.50;;;;;;;;;;5080120;28;20214;-64
2022/09/09 12:10:29;;;;;;;1.53;1.43;;;;;;;;;;5081406;28;20750;-63
2022/09/09 12:13:19;;;;;;;1.20;1.20;;;;;;;;;;5080178;28;20195;-64
2022/09/09 12:16:06;;;;;;;1.70;1.60;;;;;;;;;;5070924;28;20200;-63
2022/09/09 12:19:03;;;;;;;1.57;1.47;;;;;;;;;;5080932;28;20211;-63
2022/09/09 12:22:00;;;;;;;1.50;1.43;;;;;;;;;;5075684;28;20349;-63
2022/09/09 12:24:57;;;;;;;1.70;1.40;;;;;;;;;;5078697;28;20207;-63
2022/09/09 12:27:51;;;;;;;1.50;1.40;;;;;;;;;;5076649;28;20671;-63
2022/09/09 12:30:49;;;;;;;1.47;1.37;;;;;;;;;;5079203;28;20227;-63
2022/09/09 12:33:39;;;;;;;1.37;1.37;;;;;;;;;;5079975;28;21023;-63
2022/09/09 12:36:31;;;;;;;1.50;1.50;;;;;;;;;;5079394;28;20204;-63
2022/09/09 12:39:20;;;;;;;1.43;1.43;;;;;;;;;;5081812;28;20195;-63
2022/09/09 12:42:17;;;;;;;1.10;1.10;;;;;;;;;;5074544;28;20236;-64
2022/09/09 12:45:16;;;;;;;1.50;1.40;;;;;;;;;;5079214;28;20318;-63
2022/09/09 12:48:06;;;;;;;2.20;1.70;;;;;;;;;;5078485;28;20207;-63
2022/09/09 12:50:54;;;;;;;1.43;1.43;;;;;;;;;;5075712;28;20227;-63
2022/09/09 12:53:41;;;;;;;1.40;1.17;;;;;;;;;;5083330;28;20281;-63
2022/09/09 12:56:30;;;;;;;1.40;1.40;;;;;;;;;;5077003;28;20244;-63
2022/09/09 12:59:25;;;;;;;1.50;1.40;;;;;;;;;;5076044;28;20284;-63
2022/09/09 13:02:19;;;;;;;1.50;1.40;;;;;;;;;;5077317;28;20290;-63
2022/09/09 13:05:17;;;;;;;1.60;1.50;;;;;;;;;;5079611;28;20266;-63
2022/09/09 13:08:05;;;;;;;1.53;1.43;;;;;;;;;;5079400;28;20199;-63
2022/09/09 13:10:55;;;;;;;1.53;1.43;;;;;;;;;;5078000;28;20361;-63
2022/09/09 13:13:50;;;;;;;1.67;1.57;;;;;;;;;;5077774;28;20288;-63
2022/09/09 13:16:39;;;;;;;1.37;1.37;;;;;;;;;;5077612;28;20205;-63
2022/09/09 13:19:28;;;;;;;1.43;1.43;;;;;;;;;;5079560;28;20227;-63
2022/09/09 13:22:21;;;;;;;2.13;1.70;;;;;;;;;;5076553;28;20211;-63
2022/09/09 13:25:20;;;;;;;1.80;1.70;;;;;;;;;;5073809;28;20642;-63
2022/09/09 13:28:22;;;;;;;1.47;1.37;;;;;;;;;;5078270;28;20218;-63
2022/09/09 13:31:21;;;;;;;1.23;1.23;;;;;;;;;;5077290;28;20219;-62
2022/09/09 13:34:14;;;;;;;1.30;1.30;;;;;;;;;;5076396;28;20199;-63
2022/09/09 13:37:05;;;;;;;1.60;1.50;;;;;;;;;;5076355;28;20211;-63
2022/09/09 13:39:54;;;;;;;1.60;1.50;;;;;;;;;;5079650;28;20660;-63
2022/09/09 13:42:42;;;;;;;1.40;1.30;;;;;;;;;;5077236;28;20726;-63
2022/09/09 13:45:30;;;;;;;1.00;1.00;;;;;;;;;;5077475;28;20199;-63
2022/09/09 13:48:19;;;;;;;1.50;1.50;;;;;;;;;;5077748;28;20337;-62
2022/09/09 13:51:30;;;;;;;1.20;1.20;;;;;;;;;;5076155;28;20301;-63
2022/09/09 13:54:19;;;;;;;1.50;1.40;;;;;;;;;;5075505;28;20206;-63
2022/09/09 13:57:14;;;;;;;1.30;1.30;;;;;;;;;;5075224;28;20329;-63
2022/09/09 14:00:02;;;;;;;1.20;1.20;;;;;;;;;;5077710;28;20234;-63
2022/09/09 14:02:49;;;;;;;1.30;1.30;;;;;;;;;;5076470;28;20198;-63
2022/09/09 14:05:36;;;;;;;1.30;1.30;;;;;;;;;;5071400;28;20239;-63
2022/09/09 14:08:28;;;;;;;1.20;1.20;;;;;;;;;;5075983;28;20283;-63
2022/09/09 14:11:15;;;;;;;1.53;1.43;;;;;;;;;;5080069;28;21034;-63
2022/09/09 14:14:01;;;;;;;1.20;1.20;;;;;;;;;;5077865;28;20245;-63
2022/09/09 14:16:48;;;;;;;1.30;1.20;;;;;;;;;;5078347;28;20300;-63
2022/09/09 14:19:36;;;;;;;1.40;1.40;;;;;;;;;;5072454;28;20214;-63
2022/09/09 14:22:24;;;;;;;1.10;1.10;;;;;;;;;;5080280;28;20341;-63
2022/09/09 14:25:13;;;;;;;1.30;1.30;;;;;;;;;;5084941;28;20311;-62
2022/09/09 14:28:00;;;;;;;1.37;1.37;;;;;;;;;;5081359;28;20203;-63
2022/09/09 14:30:47;;;;;;;1.10;1.10;;;;;;;;;;5080809;28;20682;-63
2022/09/09 14:33:34;;;;;;;1.40;1.40;;;;;;;;;;5081263;28;20286;-63
2022/09/09 14:36:21;;;;;;;1.40;1.40;;;;;;;;;;5082351;28;20218;-63
2022/09/09 14:39:08;;;;;;;1.07;1.07;;;;;;;;;;5083140;28;20356;-63
2022/09/09 14:41:56;;;;;;;1.50;1.40;;;;;;;;;;5085094;28;20871;-63
2022/09/09 14:44:43;;;;;;;1.43;1.33;;;;;;;;;;5077835;28;20292;-63
2022/09/09 14:47:30;;;;;;;1.50;1.37;;;;;;;;;;5073908;28;20727;-63
2022/09/09 14:50:17;;;;;;;1.07;1.07;;;;;;;;;;5078185;28;20308;-63
2022/09/09 14:53:04;;;;;;;1.10;1.10;;;;;;;;;;5078674;28;20370;-63
2022/09/09 14:55:51;;;;;;;1.33;1.20;;;;;;;;;;5077912;28;20341;-62
2022/09/09 14:58:39;;;;;;;1.33;1.20;;;;;;;;;;5081172;28;20679;-64
2022/09/09 15:01:26;;;;;;;1.20;1.20;;;;;;;;;;5081235;28;20256;-63
2022/09/09 15:04:14;;;;;;;1.40;1.20;;;;;;;;;;5081292;28;20239;-63
2022/09/09 15:07:02;;;;;;;1.30;1.20;;;;;;;;;;5083115;28;20550;-63
2022/09/09 15:09:49;;;;;;;1.10;1.10;;;;;;;;;;5079683;28;20222;-63
2022/09/09 15:12:36;;;;;;;1.20;1.10;;;;;;;;;;5081137;28;20286;-62
2022/09/09 15:15:24;;;;;;;1.00;1.00;;;;;;;;;;5081722;28;20264;-63
2022/09/09 15:18:12;;;;;;;1.00;1.00;;;;;;;;;;5081465;28;20205;-63
2022/09/09 15:20:59;;;;;;;1.00;1.00;;;;;;;;;;5077670;28;20210;-63
2022/09/09 15:23:47;;;;;;;1.13;1.13;;;;;;;;;;5081983;28;20555;-63
2022/09/09 15:26:34;;;;;;;1.20;1.17;;;;;;;;;;5077106;28;20218;-63
2022/09/09 15:29:21;;;;;;;0.97;0.97;;;;;;;;;;5081289;28;20337;-64
2022/09/09 15:32:09;;;;;;;1.07;1.07;;;;;;;;;;5083881;28;20202;-63
2022/09/09 15:34:56;;;;;;;1.13;1.13;;;;;;;;;;5083194;28;20328;-63
2022/09/09 15:37:43;;;;;;;0.90;0.90;;;;;;;;;;5080979;28;20287;-63
2022/09/09 15:40:32;;;;;;;0.93;0.93;;;;;;;;;;5080283;28;20297;-63
2022/09/09 15:43:18;;;;;;;0.90;0.90;;;;;;;;;;5078382;28;20199;-62
2022/09/09 15:46:26;;;;;;;1.07;1.07;;;;;;;;;;5082790;28;20267;-63
2022/09/09 15:49:17;;;;;;;0.93;0.90;;;;;;;;;;5077984;28;20214;-63
2022/09/09 15:52:04;;;;;;;0.80;0.80;;;;;;;;;;5079250;28;20634;-63
2022/09/09 15:54:51;;;;;;;1.00;1.00;;;;;;;;;;5080814;28;20345;-63
2022/09/09 15:57:38;;;;;;;1.10;1.00;;;;;;;;;;5077121;28;20202;-62
2022/09/09 16:00:25;;;;;;;1.00;1.00;;;;;;;;;;5081512;28;20212;-62
2022/09/09 16:03:12;;;;;;;0.93;0.93;;;;;;;;;;5082445;28;20221;-62
2022/09/09 16:06:01;;;;;;;1.03;0.80;;;;;;;;;;5067423;28;20431;-62
2022/09/09 16:08:50;;;;;;;0.90;0.90;;;;;;;;;;5064141;28;20215;-63
2022/09/09 16:11:39;;;;;;;0.83;0.83;;;;;;;;;;5080524;28;20223;-62
2022/09/09 16:14:26;;;;;;;0.90;0.90;;;;;;;;;;5082639;28;20237;-63
2022/09/09 16:17:14;;;;;;;1.40;0.90;;;;;;;;;;5085185;28;20224;-62
2022/09/09 16:20:01;;;;;;;0.93;0.93;;;;;;;;;;5081131;28;20202;-62
2022/09/09 16:22:49;;;;;;;1.00;1.00;;;;;;;;;;5082569;28;20336;-63
2022/09/09 16:25:36;;;;;;;0.87;0.87;;;;;;;;;;5083776;28;20237;-63
2022/09/09 16:28:23;;;;;;;0.80;0.80;;;;;;;;;;5083705;28;20861;-63
2022/09/09 16:31:13;;;;;;;0.70;0.70;;;;;;;;;;5082468;28;20376;-63
2022/09/09 16:34:03;;;;;;;1.00;1.00;;;;;;;;;;5077425;28;20207;-63
2022/09/09 16:36:49;;;;;;;0.80;0.80;;;;;;;;;;5079729;28;20203;-62
2022/09/09 16:39:38;;;;;;;0.70;0.70;;;;;;;;;;5080252;28;20204;-63
2022/09/09 16:42:25;;;;;;;0.80;0.80;;;;;;;;;;5079057;28;20207;-63
2022/09/09 16:45:12;;;;;;;0.80;0.80;;;;;;;;;;5077216;28;20210;-63
2022/09/09 16:48:00;;;;;;;0.70;0.70;;;;;;;;;;5075789;28;20218;-63
2022/09/09 16:50:47;;;;;;;0.60;0.60;;;;;;;;;;5079019;28;20222;-62
2022/09/09 16:53:34;;;;;;;0.70;0.70;;;;;;;;;;5080443;28;20330;-63
2022/09/09 16:56:27;;;;;;;0.80;0.80;;;;;;;;;;5084149;28;20358;-63
2022/09/09 16:59:15;;;;;;;0.60;0.60;;;;;;;;;;5084043;28;20210;-63
2022/09/09 17:02:04;;;;;;;0.83;0.83;;;;;;;;;;5081474;28;20277;-63